Wetterdaten: Woche 08.11.04 - 14.11.04 (KW46)
Datum Zeit Temperatur Luftfeuchte Luftdruck Regenmenge Wind Richtung Taupunkt Windchill
08.11.2004 00:00 2.2 C 100 % 1021.9 hPa 0.0 l/m 1.1 km/h (1 Bft) O-SO 2.2 C 2.0 C
08.11.2004 01:00 2.2 C 100 % 1021.7 hPa 0.0 l/m 1.9 km/h (1 Bft) O-SO 2.2 C 1.8 C
08.11.2004 02:00 2.2 C 100 % 1021.0 hPa 0.0 l/m 1.1 km/h (0 Bft) O-SO 2.2 C 2.1 C
08.11.2004 03:00 2.2 C 100 % 1020.8 hPa 0.0 l/m 0.9 km/h (0 Bft) O-SO 2.2 C 2.2 C
08.11.2004 04:00 2.0 C 100 % 1020.8 hPa 0.0 l/m 3.4 km/h (1 Bft) O-SO 2.0 C 1.2 C
08.11.2004 05:00 1.7 C 100 % 1020.8 hPa 0.0 l/m 1.0 km/h (0 Bft) O-SO 1.7 C 1.6 C
08.11.2004 06:00 1.7 C 99 % 1020.9 hPa 0.0 l/m 0.7 km/h (0 Bft) W 1.5 C 1.5 C
08.11.2004 07:00 1.4 C 99 % 1021.0 hPa 0.0 l/m 2.9 km/h (1 Bft) W 1.3 C 0.6 C
08.11.2004 08:00 1.6 C 99 % 1020.9 hPa 0.0 l/m 0.5 km/h (0 Bft) W-SW 1.5 C 1.4 C
08.11.2004 09:00 2.8 C 93 % 1020.8 hPa 0.0 l/m 0.0 km/h (0 Bft) W-SW 1.7 C 2.8 C
08.11.2004 10:00 3.5 C 84 % 1019.8 hPa 0.0 l/m 0.4 km/h (0 Bft) W-SW 1.1 C 3.5 C
08.11.2004 11:00 4.6 C 78 % 1018.9 hPa 0.0 l/m 0.7 km/h (0 Bft) O 1.1 C 4.6 C
08.11.2004 12:00 6.0 C 71 % 1017.9 hPa 0.0 l/m 3.8 km/h (1 Bft) O-SO 1.2 C 5.4 C
08.11.2004 13:00 7.4 C 62 % 1016.9 hPa 0.0 l/m 4.7 km/h (1 Bft) O-SO 0.5 C 6.6 C
08.11.2004 14:00 6.9 C 62 % 1016.0 hPa 0.0 l/m 2.2 km/h (1 Bft) O 0.1 C 6.6 C
08.11.2004 15:00 6.6 C 57 % 1016.1 hPa 0.0 l/m 2.6 km/h (1 Bft) O-SO -1.4 C 6.1 C
08.11.2004 16:00 5.7 C 62 % 1016.1 hPa 0.0 l/m 6.6 km/h (2 Bft) O-SO -1.1 C 4.4 C
08.11.2004 17:00 4.8 C 69 % 1015.7 hPa 0.0 l/m 4.9 km/h (1 Bft) O-SO -0.4 C 4.0 C
08.11.2004 18:00 4.3 C 74 % 1015.6 hPa 0.0 l/m 0.7 km/h (0 Bft) O-SO 0.1 C 4.3 C
08.11.2004 19:00 4.1 C 76 % 1015.4 hPa 0.0 l/m 0.7 km/h (0 Bft) O 0.3 C 4.1 C
08.11.2004 20:00 4.0 C 76 % 1015.4 hPa 0.0 l/m 0.0 km/h (0 Bft) N 0.1 C 4.0 C
08.11.2004 21:00 3.4 C 80 % 1015.5 hPa 0.0 l/m 0.0 km/h (0 Bft) N 0.2 C 3.4 C
08.11.2004 22:00 2.6 C 83 % 1015.6 hPa 0.0 l/m 0.3 km/h (0 Bft) O-NO -0.0 C 2.6 C
08.11.2004 23:00 1.5 C 88 % 1015.0 hPa 0.0 l/m 0.7 km/h (0 Bft) O-NO -0.2 C 1.5 C
09.11.2004 00:00 0.8 C 91 % 1014.3 hPa 0.0 l/m 0.3 km/h (0 Bft) O -0.5 C 0.8 C
09.11.2004 01:00 0.0 C 93 % 1013.9 hPa 0.0 l/m 1.1 km/h (0 Bft) O -1.1 C -0.3 C
09.11.2004 02:00 -0.6 C 93 % 1014.0 hPa 0.0 l/m 0.1 km/h (0 Bft) N -1.5 C -0.6 C
09.11.2004 03:00 -0.0 C 94 % 1013.9 hPa 0.0 l/m 0.2 km/h (0 Bft) N -0.8 C -0.0 C
09.11.2004 04:00 0.2 C 90 % 1013.0 hPa 0.0 l/m 0.1 km/h (0 Bft) N -1.3 C 0.2 C
09.11.2004 05:00 1.1 C 82 % 1012.7 hPa 0.0 l/m 0.1 km/h (0 Bft) N -1.6 C 1.1 C
09.11.2004 06:00 1.2 C 78 % 1012.7 hPa 0.0 l/m 0.0 km/h (0 Bft) N -2.1 C 1.2 C
09.11.2004 07:00 -0.4 C 82 % 1012.9 hPa 0.0 l/m 0.0 km/h (0 Bft) N -3.1 C -0.4 C
09.11.2004 08:00 0.2 C 89 % 1012.8 hPa 0.0 l/m 0.0 km/h (0 Bft) N -1.4 C 0.2 C
09.11.2004 09:00 2.2 C 75 % 1012.6 hPa 0.0 l/m 1.0 km/h (0 Bft) O-NO -1.8 C 2.0 C
09.11.2004 10:00 2.9 C 68 % 1012.4 hPa 0.0 l/m 1.2 km/h (1 Bft) O -2.3 C 2.7 C
09.11.2004 11:00 3.4 C 66 % 1012.4 hPa 0.0 l/m 0.2 km/h (0 Bft) N-NO -2.4 C 3.4 C
09.11.2004 12:00 3.3 C 65 % 1012.4 hPa 0.0 l/m 1.3 km/h (1 Bft) O-SO -2.7 C 3.0 C
09.11.2004 13:00 3.5 C 62 % 1011.4 hPa 0.0 l/m 2.2 km/h (1 Bft) O -3.0 C 3.1 C
09.11.2004 14:00 3.6 C 60 % 1011.3 hPa 0.0 l/m 0.1 km/h (0 Bft) N -3.4 C 3.6 C
09.11.2004 15:00 3.6 C 62 % 1011.3 hPa 0.0 l/m 0.5 km/h (0 Bft) O -3.0 C 3.6 C
09.11.2004 16:00 3.0 C 68 % 1011.4 hPa 0.0 l/m 5.4 km/h (1 Bft) W-NW -2.4 C 1.7 C
09.11.2004 17:00 2.1 C 74 % 1011.5 hPa 0.0 l/m 3.1 km/h (1 Bft) W-NW -2.0 C 1.4 C
09.11.2004 18:00 1.3 C 78 % 1011.4 hPa 0.0 l/m 0.1 km/h (0 Bft) N -2.1 C 1.3 C
09.11.2004 19:00 0.4 C 83 % 1011.7 hPa 0.0 l/m 0.0 km/h (0 Bft) N -2.1 C 0.4 C
09.11.2004 20:00 0.3 C 87 % 1011.2 hPa 0.0 l/m 0.6 km/h (0 Bft) SO -1.7 C 0.2 C
09.11.2004 21:00 0.3 C 85 % 1011.4 hPa 0.0 l/m 0.3 km/h (0 Bft) SO -1.9 C 0.3 C
09.11.2004 22:00 0.1 C 85 % 1011.8 hPa 0.0 l/m 1.9 km/h (1 Bft) O-SO -2.1 C -0.2 C
09.11.2004 23:00 -0.0 C 86 % 1011.8 hPa 0.0 l/m 0.6 km/h (0 Bft) SO -2.1 C -0.0 C
10.11.2004 00:00 -0.1 C 86 % 1011.6 hPa 0.0 l/m 0.6 km/h (0 Bft) W -2.1 C -0.2 C
10.11.2004 01:00 0.2 C 86 % 1011.8 hPa 0.0 l/m 0.7 km/h (0 Bft) W-NW -1.9 C 0.0 C
10.11.2004 02:00 0.2 C 86 % 1011.2 hPa 0.0 l/m 0.3 km/h (0 Bft) SO -1.9 C 0.2 C
10.11.2004 03:00 -0.1 C 85 % 1010.8 hPa 0.0 l/m 0.3 km/h (0 Bft) O-SO -2.3 C -0.1 C
10.11.2004 04:00 -0.4 C 88 % 1010.8 hPa 0.0 l/m 0.1 km/h (0 Bft) N -2.2 C -0.4 C
10.11.2004 05:00 -0.7 C 89 % 1010.9 hPa 0.0 l/m 0.4 km/h (0 Bft) O-SO -2.2 C -0.8 C
10.11.2004 06:00 -0.2 C 91 % 1010.8 hPa 0.0 l/m 0.4 km/h (0 Bft) W -1.6 C -0.2 C
10.11.2004 07:00 -0.0 C 89 % 1011.0 hPa 0.0 l/m 1.1 km/h (0 Bft) O-SO -1.6 C -0.1 C
10.11.2004 08:00 0.3 C 90 % 1011.8 hPa 0.0 l/m 0.6 km/h (0 Bft) O-SO -1.2 C 0.2 C
10.11.2004 09:00 1.1 C 85 % 1011.6 hPa 0.0 l/m 0.7 km/h (0 Bft) W-SW -1.1 C 1.0 C
10.11.2004 10:00 2.2 C 79 % 1011.5 hPa 0.0 l/m 2.2 km/h (1 Bft) O-SO -1.1 C 1.7 C
10.11.2004 11:00 2.7 C 73 % 1011.4 hPa 0.0 l/m 2.3 km/h (1 Bft) W-NW -1.6 C 2.2 C
10.11.2004 12:00 3.1 C 73 % 1011.4 hPa 0.0 l/m 1.6 km/h (1 Bft) SO -1.4 C 2.8 C
10.11.2004 13:00 3.2 C 72 % 1010.6 hPa 0.0 l/m 0.8 km/h (0 Bft) W-NW -1.4 C 3.1 C
10.11.2004 14:00 3.4 C 71 % 1010.3 hPa 0.0 l/m 0.5 km/h (0 Bft) O -1.3 C 3.4 C
10.11.2004 15:00 3.0 C 69 % 1010.3 hPa 0.0 l/m 0.2 km/h (0 Bft) N -2.1 C 3.0 C
10.11.2004 16:00 1.8 C 74 % 1010.5 hPa 0.0 l/m 0.1 km/h (0 Bft) NW -2.3 C 1.8 C
10.11.2004 17:00 0.1 C 84 % 1011.4 hPa 0.0 l/m 0.9 km/h (0 Bft) O -2.3 C -0.1 C
10.11.2004 18:00 0.3 C 87 % 1012.1 hPa 0.0 l/m 0.0 km/h (0 Bft) N -1.6 C 0.3 C
10.11.2004 19:00 0.8 C 86 % 1012.7 hPa 0.0 l/m 0.0 km/h (0 Bft) N -1.3 C 0.8 C
10.11.2004 20:00 1.0 C 85 % 1012.7 hPa 0.0 l/m 0.0 km/h (0 Bft) N -1.2 C 1.0 C
10.11.2004 21:00 1.3 C 88 % 1012.7 hPa 0.0 l/m 0.0 km/h (0 Bft) N -0.5 C 1.3 C
10.11.2004 22:00 1.6 C 89 % 1012.6 hPa 0.0 l/m 0.0 km/h (0 Bft) N -0.1 C 1.6 C
10.11.2004 23:00 1.7 C 89 % 1012.6 hPa 0.0 l/m 0.0 km/h (0 Bft) N 0.0 C 1.7 C
11.11.2004 00:00 1.4 C 91 % 1012.6 hPa 0.0 l/m 0.0 km/h (0 Bft) N 0.2 C 1.4 C
11.11.2004 01:00 1.1 C 93 % 1012.7 hPa 0.3 l/m 0.0 km/h (0 Bft) N 0.2 C 1.1 C
11.11.2004 02:00 1.0 C 95 % 1013.7 hPa 0.0 l/m 0.0 km/h (0 Bft) N 0.2 C 1.0 C
11.11.2004 03:00 1.0 C 96 % 1013.0 hPa 0.0 l/m 0.0 km/h (0 Bft) N 0.4 C 1.0 C
11.11.2004 04:00 0.9 C 97 % 1013.2 hPa 0.0 l/m 0.0 km/h (0 Bft) N 0.4 C 0.9 C
11.11.2004 05:00 1.1 C 98 % 1013.7 hPa 0.0 l/m 0.0 km/h (0 Bft) N 0.8 C 1.1 C
11.11.2004 06:00 1.2 C 99 % 1013.9 hPa 0.0 l/m 0.0 km/h (0 Bft) N 1.0 C 1.2 C
11.11.2004 07:00 1.2 C 99 % 1014.4 hPa 0.0 l/m 0.0 km/h (0 Bft) N 1.0 C 1.2 C
11.11.2004 08:00 1.3 C 96 % 1015.3 hPa 0.0 l/m 0.5 km/h (0 Bft) O 0.7 C 1.2 C
11.11.2004 09:00 2.3 C 88 % 1015.6 hPa 0.0 l/m 2.3 km/h (1 Bft) O 0.5 C 1.8 C
11.11.2004 10:00 3.1 C 79 % 1015.6 hPa 0.0 l/m 2.8 km/h (1 Bft) NO -0.2 C 2.6 C
11.11.2004 11:00 4.4 C 70 % 1016.4 hPa 0.0 l/m 10.0 km/h (2 Bft) O-SO -0.6 C 2.3 C
11.11.2004 12:00 5.2 C 63 % 1016.3 hPa 0.0 l/m 18.0 km/h (3 Bft) O-SO -1.2 C 1.6 C
11.11.2004 13:00 5.7 C 61 % 1016.2 hPa 0.0 l/m 10.3 km/h (2 Bft) O-SO -1.4 C 3.6 C
11.11.2004 14:00 5.1 C 63 % 1017.2 hPa 0.0 l/m 5.4 km/h (1 Bft) O-SO -1.3 C 3.9 C
11.11.2004 15:00 5.0 C 63 % 1017.6 hPa 0.3 l/m 1.6 km/h (1 Bft) O-SO -1.5 C 4.7 C
11.11.2004 16:00 4.6 C 63 % 1018.6 hPa 0.0 l/m 0.9 km/h (0 Bft) NO -1.8 C 4.5 C
11.11.2004 17:00 4.1 C 65 % 1019.4 hPa 0.0 l/m 1.1 km/h (0 Bft) N-NO -1.8 C 4.0 C
11.11.2004 18:00 3.9 C 64 % 1020.3 hPa 0.0 l/m 1.7 km/h (1 Bft) O-NO -2.2 C 3.6 C
11.11.2004 19:00 3.7 C 66 % 1020.6 hPa 0.0 l/m 0.2 km/h (0 Bft) N -2.1 C 3.7 C
11.11.2004 20:00 3.2 C 69 % 1021.4 hPa 0.0 l/m 0.6 km/h (0 Bft) O-SO -1.9 C 3.1 C
11.11.2004 21:00 3.4 C 70 % 1021.7 hPa 0.0 l/m 0.4 km/h (0 Bft) NO -1.6 C 3.4 C
11.11.2004 22:00 3.4 C 70 % 1022.2 hPa 0.0 l/m 4.5 km/h (1 Bft) O -1.5 C 2.4 C
11.11.2004 23:00 3.4 C 70 % 1022.1 hPa 0.0 l/m 1.9 km/h (1 Bft) O -1.6 C 3.0 C
12.11.2004 00:00 3.3 C 70 % 1022.7 hPa 0.0 l/m 4.0 km/h (1 Bft) O -1.7 C 2.4 C
12.11.2004 01:00 3.1 C 71 % 1022.8 hPa 0.0 l/m 0.4 km/h (0 Bft) NO -1.6 C 3.1 C
12.11.2004 02:00 3.0 C 72 % 1022.8 hPa 0.0 l/m 1.4 km/h (1 Bft) O -1.5 C 2.7 C
12.11.2004 03:00 2.9 C 74 % 1022.8 hPa 0.0 l/m 0.1 km/h (0 Bft) NO -1.3 C 2.9 C
12.11.2004 04:00 2.9 C 75 % 1022.8 hPa 0.0 l/m 0.0 km/h (0 Bft) N -1.1 C 2.9 C
12.11.2004 05:00 2.8 C 75 % 1023.0 hPa 0.0 l/m 0.1 km/h (0 Bft) N -1.2 C 2.8 C
12.11.2004 06:00 2.7 C 76 % 1023.6 hPa 0.0 l/m 0.0 km/h (0 Bft) N -1.1 C 2.7 C
12.11.2004 07:00 2.7 C 77 % 1023.6 hPa 0.0 l/m 0.0 km/h (0 Bft) N -0.9 C 2.7 C
12.11.2004 08:00 2.9 C 77 % 1023.9 hPa 0.0 l/m 0.0 km/h (0 Bft) N -0.7 C 2.9 C
12.11.2004 09:00 3.3 C 78 % 1023.8 hPa 0.0 l/m 0.0 km/h (0 Bft) N -0.2 C 3.3 C
12.11.2004 10:00 3.5 C 76 % 1023.8 hPa 0.0 l/m 0.0 km/h (0 Bft) N -0.4 C 3.5 C
12.11.2004 11:00 3.7 C 75 % 1023.0 hPa 0.0 l/m 0.2 km/h (0 Bft) SO -0.4 C 3.7 C
12.11.2004 12:00 3.8 C 75 % 1022.7 hPa 0.0 l/m 3.7 km/h (1 Bft) W -0.3 C 2.9 C
12.11.2004 13:00 3.9 C 75 % 1022.4 hPa 0.0 l/m 0.9 km/h (0 Bft) W-NW -0.2 C 3.7 C
12.11.2004 14:00 4.1 C 74 % 1021.6 hPa 0.0 l/m 0.1 km/h (0 Bft) N -0.2 C 4.1 C
12.11.2004 15:00 4.2 C 74 % 1021.6 hPa 0.0 l/m 3.6 km/h (1 Bft) W-NW -0.0 C 3.4 C
12.11.2004 16:00 4.0 C 74 % 1021.6 hPa 0.0 l/m 11.1 km/h (2 Bft) W-NW -0.2 C 1.4 C
12.11.2004 17:00 3.8 C 76 % 1022.3 hPa 0.0 l/m 9.8 km/h (2 Bft) W-NW -0.1 C 1.7 C
12.11.2004 18:00 3.7 C 77 % 1022.7 hPa 0.0 l/m 5.6 km/h (1 Bft) W-NW 0.1 C 2.5 C
12.11.2004 19:00 3.7 C 78 % 1022.7 hPa 0.0 l/m 4.6 km/h (1 Bft) W-NW 0.3 C 2.7 C
12.11.2004 20:00 3.5 C 79 % 1022.7 hPa 0.0 l/m 17.2 km/h (3 Bft) W-NW 0.2 C 0.0 C
12.11.2004 21:00 3.2 C 80 % 1022.5 hPa 0.0 l/m 14.5 km/h (3 Bft) W-NW 0.2 C -0.0 C
12.11.2004 22:00 3.1 C 80 % 1021.8 hPa 0.0 l/m 12.1 km/h (2 Bft) W-NW 0.0 C 0.3 C
12.11.2004 23:00 2.6 C 81 % 1021.8 hPa 0.0 l/m 7.7 km/h (2 Bft) W-NW -0.4 C 0.9 C
13.11.2004 00:00 2.2 C 82 % 1021.9 hPa 0.0 l/m 12.9 km/h (3 Bft) W-NW -0.5 C -1.0 C
13.11.2004 01:00 2.2 C 83 % 1021.9 hPa 0.0 l/m 8.5 km/h (2 Bft) W-NW -0.4 C 0.1 C
13.11.2004 02:00 2.0 C 83 % 1021.9 hPa 0.0 l/m 13.0 km/h (3 Bft) W-NW -0.6 C -1.1 C
13.11.2004 03:00 2.0 C 84 % 1021.9 hPa 0.0 l/m 8.4 km/h (2 Bft) W-NW -0.4 C -0.2 C
13.11.2004 04:00 2.1 C 83 % 1021.9 hPa 0.0 l/m 6.1 km/h (2 Bft) W -0.4 C 0.6 C
13.11.2004 05:00 2.0 C 84 % 1022.8 hPa 0.9 l/m 2.8 km/h (1 Bft) W-NW -0.4 C 1.4 C
13.11.2004 06:00 1.4 C 92 % 1023.7 hPa 0.3 l/m 0.1 km/h (0 Bft) N 0.2 C 1.4 C
13.11.2004 07:00 1.8 C 95 % 1024.2 hPa 0.0 l/m 0.3 km/h (0 Bft) W-NW 1.1 C 1.8 C
13.11.2004 08:00 2.1 C 95 % 1025.2 hPa 0.0 l/m 0.1 km/h (0 Bft) N 1.3 C 2.1 C
13.11.2004 09:00 2.3 C 95 % 1026.0 hPa 0.0 l/m 0.4 km/h (0 Bft) O 1.6 C 2.3 C
13.11.2004 10:00 3.4 C 91 % 1026.7 hPa 0.0 l/m 1.6 km/h (1 Bft) O-SO 2.2 C 3.2 C
13.11.2004 11:00 4.4 C 83 % 1026.7 hPa 0.0 l/m 3.6 km/h (1 Bft) W-NW 1.8 C 3.7 C
13.11.2004 12:00 5.2 C 77 % 1026.2 hPa 0.0 l/m 5.7 km/h (1 Bft) O-SO 1.6 C 4.1 C
13.11.2004 13:00 4.9 C 76 % 1026.7 hPa 0.0 l/m 0.2 km/h (0 Bft) N 1.1 C 4.9 C
13.11.2004 14:00 5.2 C 70 % 1026.7 hPa 0.0 l/m 0.1 km/h (0 Bft) O-SO 0.2 C 5.2 C
13.11.2004 15:00 5.0 C 68 % 1026.7 hPa 0.0 l/m 1.8 km/h (1 Bft) O -0.4 C 4.7 C
13.11.2004 16:00 4.2 C 70 % 1027.3 hPa 0.0 l/m 1.4 km/h (1 Bft) O -0.8 C 4.0 C
13.11.2004 17:00 3.6 C 75 % 1027.9 hPa 0.0 l/m 0.0 km/h (0 Bft) N -0.3 C 3.6 C
13.11.2004 18:00 3.1 C 75 % 1028.0 hPa 0.0 l/m 0.0 km/h (0 Bft) N -0.8 C 3.1 C
13.11.2004 19:00 1.8 C 76 % 1028.4 hPa 0.0 l/m 0.9 km/h (0 Bft) O -2.0 C 1.6 C
13.11.2004 20:00 1.5 C 83 % 1029.3 hPa 0.0 l/m 0.1 km/h (0 Bft) O -1.1 C 1.5 C
13.11.2004 21:00 0.3 C 86 % 1029.5 hPa 0.0 l/m 0.2 km/h (0 Bft) O -1.8 C 0.3 C
13.11.2004 22:00 -0.4 C 90 % 1029.6 hPa 0.0 l/m 1.4 km/h (1 Bft) O-SO -1.9 C -0.6 C
13.11.2004 23:00 -0.9 C 92 % 1028.8 hPa 0.0 l/m 3.2 km/h (1 Bft) O-SO -2.0 C -2.0 C
14.11.2004 00:00 -0.8 C 93 % 1028.6 hPa 0.0 l/m 2.0 km/h (1 Bft) O-SO -1.7 C -1.3 C
14.11.2004 01:00 -1.7 C 93 % 1028.7 hPa 0.0 l/m 0.0 km/h (0 Bft) N -2.6 C -1.7 C
14.11.2004 02:00 -1.6 C 94 % 1028.7 hPa 0.0 l/m 0.7 km/h (0 Bft) O -2.4 C -1.7 C
14.11.2004 03:00 -1.4 C 96 % 1028.7 hPa 0.0 l/m 3.9 km/h (1 Bft) O -2.0 C -2.8 C
14.11.2004 04:00 -2.0 C 96 % 1028.8 hPa 0.0 l/m 1.2 km/h (1 Bft) O -2.6 C -2.4 C
14.11.2004 05:00 -1.8 C 96 % 1028.7 hPa 0.0 l/m 1.9 km/h (1 Bft) O -2.3 C -2.3 C
14.11.2004 06:00 -0.2 C 97 % 1028.5 hPa 0.0 l/m 0.1 km/h (0 Bft) O -0.6 C -0.2 C
14.11.2004 07:00 0.1 C 94 % 1029.1 hPa 0.0 l/m 0.0 km/h (0 Bft) N -0.7 C 0.1 C
14.11.2004 08:00 0.8 C 87 % 1029.4 hPa 0.0 l/m 1.9 km/h (1 Bft) O -1.1 C 0.3 C
14.11.2004 09:00 1.6 C 79 % 1029.3 hPa 0.0 l/m 0.3 km/h (0 Bft) N -1.7 C 1.5 C
14.11.2004 10:00 2.1 C 70 % 1029.9 hPa 0.0 l/m 1.0 km/h (0 Bft) O -2.8 C 2.0 C
14.11.2004 11:00 2.8 C 61 % 1029.5 hPa 0.0 l/m 11.6 km/h (2 Bft) O-NO -3.9 C 0.1 C
14.11.2004 12:00 3.4 C 51 % 1028.5 hPa 0.0 l/m 9.0 km/h (2 Bft) NO -5.9 C 1.3 C
14.11.2004 13:00 4.4 C 42 % 1028.1 hPa 0.0 l/m 12.5 km/h (3 Bft) O -7.2 C 1.8 C
14.11.2004 14:00 4.9 C 42 % 1028.6 hPa 0.0 l/m 5.1 km/h (1 Bft) O-NO -7.0 C 3.9 C
14.11.2004 15:00 3.9 C 46 % 1028.9 hPa 0.0 l/m 8.8 km/h (2 Bft) O -6.6 C 1.8 C
14.11.2004 16:00 2.6 C 47 % 1029.3 hPa 0.0 l/m 9.0 km/h (2 Bft) O -7.6 C 0.5 C
14.11.2004 17:00 1.1 C 52 % 1029.8 hPa 0.0 l/m 1.8 km/h (1 Bft) N-NO -7.5 C 0.8 C
14.11.2004 18:00 -0.4 C 59 % 1030.6 hPa 0.0 l/m 2.7 km/h (1 Bft) O -7.5 C -1.1 C
14.11.2004 19:00 -1.2 C 63 % 1030.7 hPa 0.0 l/m 0.3 km/h (0 Bft) O -7.3 C -1.3 C
14.11.2004 20:00 -1.4 C 67 % 1030.7 hPa 0.0 l/m 3.8 km/h (1 Bft) O-SO -6.7 C -2.5 C
14.11.2004 21:00 -1.4 C 68 % 1030.8 hPa 0.0 l/m 3.6 km/h (1 Bft) O-SO -6.5 C -2.6 C
14.11.2004 22:00 -1.5 C 68 % 1030.8 hPa 0.0 l/m 0.1 km/h (0 Bft) N -6.6 C -1.5 C
14.11.2004 23:00 -1.4 C 69 % 1030.5 hPa 0.0 l/m 0.2 km/h (0 Bft) N -6.4 C -1.4 C
Min-Datum _ 14.11.04 14.11.04 10.11.04 - 08.11.04 - 14.11.04 14.11.04
_ Min-Zeit 04:41 14:20 13:41 - 00:02 - 14:32 03:26
Minimum _ -2.3 C 37 % 1010.2 hPa - 0.0 km/h (0 Bft) - -8.3 C -5.6 C
Max-Datum _ 08.11.04 08.11.04 14.11.04 13.11.04 13.11.04 - 13.11.04 08.11.04
_ Max-Zeit 13:05 00:02 22:23 05:47 02:26 - 11:50 12:59
Maximum _ 7.8 C 100 % 1030.8 hPa 0.9 l/m 33.1 km/h
W-NW (5 Bft)
- 2.7 C 7.5 C
Durchschnitt _ 2.2 C 79 % 1019.6 hPa #1.9 l/m 2.3 km/h (1 Bft) O-SO -1.2 C 1.7 C

Durchschnitt Minimum Temp.1.8 C
Durchschnitt Maximum Temp.2.6 C
© Kaiko 2004